sensor_id;sensor_type;location;lat;lon;timestamp;P1;P2;P0
57373;PMS7003;43964;53.890;25.340;2023-08-06T00:00:39;0.6;0.6;0
57373;PMS7003;43964;53.890;25.340;2023-08-06T00:05:53;0.2;0.2;0
57373;PMS7003;43964;53.890;25.340;2023-08-06T00:11:03;0.4;0.2;0
57373;PMS7003;43964;53.890;25.340;2023-08-06T00:15:39;0.2;0;0
57373;PMS7003;43964;53.890;25.340;2023-08-06T00:20:31;0.6;0.2;0.2
57373;PMS7003;43964;53.890;25.340;2023-08-06T00:26:03;0;0;0
57373;PMS7003;43964;53.890;25.340;2023-08-06T00:30:25;1.6;0.8;0.2
57373;PMS7003;43964;53.890;25.340;2023-08-06T00:35:41;1;0.6;0.2
57373;PMS7003;43964;53.890;25.340;2023-08-06T00:40:31;0.3;0;0
57373;PMS7003;43964;53.890;25.340;2023-08-06T00:50:33;2;0.7;0
57373;PMS7003;43964;53.890;25.340;2023-08-06T00:55:31;1;1;0
57373;PMS7003;43964;53.890;25.340;2023-08-06T01:01:03;0.8;0.3;0
57373;PMS7003;43964;53.890;25.340;2023-08-06T01:05:53;0.5;0.5;0
57373;PMS7003;43964;53.890;25.340;2023-08-06T01:15:43;1.2;1;0.4
57373;PMS7003;43964;53.890;25.340;2023-08-06T01:21:03;1.4;0.8;0.2
57373;PMS7003;43964;53.890;25.340;2023-08-06T01:25:40;0;0;0
57373;PMS7003;43964;53.890;25.340;2023-08-06T01:30:33;1;0.8;0.6
57373;PMS7003;43964;53.890;25.340;2023-08-06T01:36:03;1.6;1;0.6
57373;PMS7003;43964;53.890;25.340;2023-08-06T01:40:53;1.4;1;0.4
57373;PMS7003;43964;53.890;25.340;2023-08-06T01:46:03;2.5;0.8;0.3
57373;PMS7003;43964;53.890;25.340;2023-08-06T01:50:53;1;0;0
57373;PMS7003;43964;53.890;25.340;2023-08-06T01:55:31;1.8;0.6;0
57373;PMS7003;43964;53.890;25.340;2023-08-06T02:00:31;0.4;0.4;0.2
57373;PMS7003;43964;53.890;25.340;2023-08-06T02:06:03;1;0.3;0
57373;PMS7003;43964;53.890;25.340;2023-08-06T02:15:51;0;0;0
57373;PMS7003;43964;53.890;25.340;2023-08-06T02:21:03;1.3;1.3;0.3
57373;PMS7003;43964;53.890;25.340;2023-08-06T02:25:56;1.2;0.2;0
57373;PMS7003;43964;53.890;25.340;2023-08-06T02:30:25;1;0.8;0.4
57373;PMS7003;43964;53.890;25.340;2023-08-06T02:35:31;2;1;0
57373;PMS7003;43964;53.890;25.340;2023-08-06T02:41:03;1;0.5;0
57373;PMS7003;43964;53.890;25.340;2023-08-06T02:46:03;1.3;1;0.7
57373;PMS7003;43964;53.890;25.340;2023-08-06T02:51:03;0.8;0.6;0.4
57373;PMS7003;43964;53.890;25.340;2023-08-06T02:56:03;1.6;0.8;0.4
57373;PMS7003;43964;53.890;25.340;2023-08-06T03:00:27;1.8;1.6;0.6
57373;PMS7003;43964;53.890;25.340;2023-08-06T03:06:03;1.3;0.5;0.3
57373;PMS7003;43964;53.890;25.340;2023-08-06T03:10:27;2.3;1;0
57373;PMS7003;43964;53.890;25.340;2023-08-06T03:16:03;2.2;1.2;0.4
57373;PMS7003;43964;53.890;25.340;2023-08-06T03:20:49;1.2;0.6;0.4
57373;PMS7003;43964;53.890;25.340;2023-08-06T03:25:37;1;1;0.4
57373;PMS7003;43964;53.890;25.340;2023-08-06T03:31:03;0.8;0.8;0.4
57373;PMS7003;43964;53.890;25.340;2023-08-06T03:35:25;1.4;1.4;0
57373;PMS7003;43964;53.890;25.340;2023-08-06T03:40:31;0.7;0.3;0
57373;PMS7003;43964;53.890;25.340;2023-08-06T03:50:47;2;2;1
57373;PMS7003;43964;53.890;25.340;2023-08-06T03:55:49;1;1;0.3
57373;PMS7003;43964;53.890;25.340;2023-08-06T04:00:57;1.8;1;0.3
57373;PMS7003;43964;53.890;25.340;2023-08-06T04:05:47;1;0.5;0.5
57373;PMS7003;43964;53.890;25.340;2023-08-06T04:10:39;1;0.8;0.5
57373;PMS7003;43964;53.890;25.340;2023-08-06T04:15:51;0.4;0.2;0
57373;PMS7003;43964;53.890;25.340;2023-08-06T04:25:25;0.2;0;0
57373;PMS7003;43964;53.890;25.340;2023-08-06T04:36:03;1.7;1.7;1
57373;PMS7003;43964;53.890;25.340;2023-08-06T04:40:43;0.8;0.8;0.3
57373;PMS7003;43964;53.890;25.340;2023-08-06T04:45:25;0.7;0;0
57373;PMS7003;43964;53.890;25.340;2023-08-06T04:50:49;0.6;0.2;0
57373;PMS7003;43964;53.890;25.340;2023-08-06T04:55:39;0.8;0.4;0
57373;PMS7003;43964;53.890;25.340;2023-08-06T05:00:39;1.6;1;0.4
57373;PMS7003;43964;53.890;25.340;2023-08-06T05:05:53;1.5;1;0.5
57373;PMS7003;43964;53.890;25.340;2023-08-06T05:15:33;0.5;0;0
57373;PMS7003;43964;53.890;25.340;2023-08-06T05:35:35;0.5;0;0
57373;PMS7003;43964;53.890;25.340;2023-08-06T05:45:53;1;1;0
57373;PMS7003;43964;53.890;25.340;2023-08-06T05:50:39;1.4;1.2;0.4
57373;PMS7003;43964;53.890;25.340;2023-08-06T05:55:31;1.8;1.5;0
57373;PMS7003;43964;53.890;25.340;2023-08-06T06:00:53;1.5;1.3;0.5
57373;PMS7003;43964;53.890;25.340;2023-08-06T06:05:53;2;1.4;0.8
57373;PMS7003;43964;53.890;25.340;2023-08-06T06:11:03;2.2;1.6;1
57373;PMS7003;43964;53.890;25.340;2023-08-06T06:15:43;1.8;1.2;1
57373;PMS7003;43964;53.890;25.340;2023-08-06T06:20:43;2.6;2;1.2
57373;PMS7003;43964;53.890;25.340;2023-08-06T06:25:25;1.5;1.5;1
57373;PMS7003;43964;53.890;25.340;2023-08-06T06:31:03;1.5;1;0.5
57373;PMS7003;43964;53.890;25.340;2023-08-06T06:35:53;1.8;1.8;1.2
57373;PMS7003;43964;53.890;25.340;2023-08-06T06:40:53;2.5;2;0.5
57373;PMS7003;43964;53.890;25.340;2023-08-06T06:46:03;3;3;1
57373;PMS7003;43964;53.890;25.340;2023-08-06T06:50:49;2;1.7;1
57373;PMS7003;43964;53.890;25.340;2023-08-06T06:55:31;2.2;2;0.8
57373;PMS7003;43964;53.890;25.340;2023-08-06T07:00:25;2.2;1.8;1.2
57373;PMS7003;43964;53.890;25.340;2023-08-06T07:06:03;2.4;2.2;1
57373;PMS7003;43964;53.890;25.340;2023-08-06T07:10:49;3.4;2.2;1.4
57373;PMS7003;43964;53.890;25.340;2023-08-06T07:16:03;3.3;3;1.8
57373;PMS7003;43964;53.890;25.340;2023-08-06T07:21:03;2.5;2.3;1.8
57373;PMS7003;43964;53.890;25.340;2023-08-06T07:25:45;2.8;2;1.4
57373;PMS7003;43964;53.890;25.340;2023-08-06T07:30:49;3.8;2.8;1.6
57373;PMS7003;43964;53.890;25.340;2023-08-06T07:35:53;2.6;1.8;0.8
57373;PMS7003;43964;53.890;25.340;2023-08-06T07:45:49;3;2.8;1.6
57373;PMS7003;43964;53.890;25.340;2023-08-06T08:00:53;4;3;2
57373;PMS7003;43964;53.890;25.340;2023-08-06T08:10:25;3.7;3;1.7
57373;PMS7003;43964;53.890;25.340;2023-08-06T08:15:49;3.3;3.3;2
57373;PMS7003;43964;53.890;25.340;2023-08-06T08:25:35;4.3;3.3;2
57373;PMS7003;43964;53.890;25.340;2023-08-06T08:30:25;3.7;3.3;2
57373;PMS7003;43964;53.890;25.340;2023-08-06T08:40:33;3.6;3;1.8
57373;PMS7003;43964;53.890;25.340;2023-08-06T08:50:33;2;2;1
57373;PMS7003;43964;53.890;25.340;2023-08-06T08:55:49;2.5;2.5;1.8
57373;PMS7003;43964;53.890;25.340;2023-08-06T09:01:03;5.2;3.2;2
57373;PMS7003;43964;53.890;25.340;2023-08-06T09:05:53;3.4;2.6;1.6
57373;PMS7003;43964;53.890;25.340;2023-08-06T09:10:25;3;2.7;2
57373;PMS7003;43964;53.890;25.340;2023-08-06T09:15:49;3.2;3;2.2
57373;PMS7003;43964;53.890;25.340;2023-08-06T09:20:39;3;3;2
57373;PMS7003;43964;53.890;25.340;2023-08-06T09:25:25;2;2;2
57373;PMS7003;43964;53.890;25.340;2023-08-06T09:30:53;3.5;2.5;1.8
57373;PMS7003;43964;53.890;25.340;2023-08-06T09:36:07;4;3;1
57373;PMS7003;43964;53.890;25.340;2023-08-06T09:40:31;2;2;1
57373;PMS7003;43964;53.890;25.340;2023-08-06T09:45:43;3;3;2
57373;PMS7003;43964;53.890;25.340;2023-08-06T09:55:53;3;3;2
57373;PMS7003;43964;53.890;25.340;2023-08-06T10:11:03;4;4;2
57373;PMS7003;43964;53.890;25.340;2023-08-06T10:20:25;1;1;1
57373;PMS7003;43964;53.890;25.340;2023-08-06T10:25:53;2.5;2.5;1.5
57373;PMS7003;43964;53.890;25.340;2023-08-06T10:36:03;2;2;1
57373;PMS7003;43964;53.890;25.340;2023-08-06T10:50:31;1;1;1
57373;PMS7003;43964;53.890;25.340;2023-08-06T11:00:53;1;1;1
57373;PMS7003;43964;53.890;25.340;2023-08-06T11:25:55;3;3;2
57373;PMS7003;43964;53.890;25.340;2023-08-06T11:31:03;6;4.5;2.5
57373;PMS7003;43964;53.890;25.340;2023-08-06T11:36:03;2.8;2.6;1.4
57373;PMS7003;43964;53.890;25.340;2023-08-06T11:41:03;3.5;3;1.5
57373;PMS7003;43964;53.890;25.340;2023-08-06T11:46:05;1.5;1.5;1
57373;PMS7003;43964;53.890;25.340;2023-08-06T12:30:39;3.6;3;2.4
57373;PMS7003;43964;53.890;25.340;2023-08-06T12:35:25;2;1.7;1
57373;PMS7003;43964;53.890;25.340;2023-08-06T12:55:31;2;2;1.5
57373;PMS7003;43964;53.890;25.340;2023-08-06T13:00:25;5.5;4;2.5
57373;PMS7003;43964;53.890;25.340;2023-08-06T13:05:31;3;2.5;1.5
57373;PMS7003;43964;53.890;25.340;2023-08-06T13:10:39;4;2.7;1.3
57373;PMS7003;43964;53.890;25.340;2023-08-06T13:15:39;2.7;2.7;1.7
57373;PMS7003;43964;53.890;25.340;2023-08-06T13:20:49;3.8;2.5;1.3
57373;PMS7003;43964;53.890;25.340;2023-08-06T13:26:05;2.6;2;1.6
57373;PMS7003;43964;53.890;25.340;2023-08-06T13:30:29;2.6;2.2;1.2
57373;PMS7003;43964;53.890;25.340;2023-08-06T13:35:25;2.5;2;1.3
57373;PMS7003;43964;53.890;25.340;2023-08-06T13:41:05;1.8;1.6;1
57373;PMS7003;43964;53.890;25.340;2023-08-06T13:45:39;1.6;1.6;1
57373;PMS7003;43964;53.890;25.340;2023-08-06T13:50:39;3;2.6;1.2
57373;PMS7003;43964;53.890;25.340;2023-08-06T13:55:39;3.2;2.4;1.2
57373;PMS7003;43964;53.890;25.340;2023-08-06T14:00:55;2.4;1.8;0.8
57373;PMS7003;43964;53.890;25.340;2023-08-06T14:05:31;2;1.3;0.7
57373;PMS7003;43964;53.890;25.340;2023-08-06T14:10:25;3;1.7;1.3
57373;PMS7003;43964;53.890;25.340;2023-08-06T14:16:05;2.8;2.8;1.6
57373;PMS7003;43964;53.890;25.340;2023-08-06T14:20:55;2.6;1.8;1.2
57373;PMS7003;43964;53.890;25.340;2023-08-06T14:25:41;3.2;2.8;1.4
57373;PMS7003;43964;53.890;25.340;2023-08-06T14:30:45;3.2;2;1
57373;PMS7003;43964;53.890;25.340;2023-08-06T14:36:05;2;1.6;0.8
57373;PMS7003;43964;53.890;25.340;2023-08-06T14:40:31;1.8;1.5;1
57373;PMS7003;43964;53.890;25.340;2023-08-06T14:45:37;2.5;2;0.5
57373;PMS7003;43964;53.890;25.340;2023-08-06T14:50:55;2.7;2;1.3
57373;PMS7003;43964;53.890;25.340;2023-08-06T14:56:05;2;2;1.2
57373;PMS7003;43964;53.890;25.340;2023-08-06T15:01:05;3.8;3;1.8
57373;PMS7003;43964;53.890;25.340;2023-08-06T15:05:46;2.4;2;1
57373;PMS7003;43964;53.890;25.340;2023-08-06T15:10:25;2.2;1.8;1.2
57373;PMS7003;43964;53.890;25.340;2023-08-06T15:15:26;3.3;2.3;1.3
57373;PMS7003;43964;53.890;25.340;2023-08-06T15:25:55;4;2.5;1.5
57373;PMS7003;43964;53.890;25.340;2023-08-06T15:30:55;2.5;2.5;1.5
57373;PMS7003;43964;53.890;25.340;2023-08-06T15:36:03;4;3;1.5
57373;PMS7003;43964;53.890;25.340;2023-08-06T15:45:25;3;2.5;1.5
57373;PMS7003;43964;53.890;25.340;2023-08-06T15:50:47;3;2.8;1.4
57373;PMS7003;43964;53.890;25.340;2023-08-06T15:55:49;3.2;2.8;1.8
57373;PMS7003;43964;53.890;25.340;2023-08-06T16:01:05;3.6;3;1.8
57373;PMS7003;43964;53.890;25.340;2023-08-06T16:06:05;4.2;2.6;1.4
57373;PMS7003;43964;53.890;25.340;2023-08-06T16:11:05;3.8;2.8;2
57373;PMS7003;43964;53.890;25.340;2023-08-06T16:15:55;3;2.4;1.4
57373;PMS7003;43964;53.890;25.340;2023-08-06T16:20:49;3.8;2.8;1.4
57373;PMS7003;43964;53.890;25.340;2023-08-06T16:25:55;3.6;2.6;1.6
57373;PMS7003;43964;53.890;25.340;2023-08-06T16:31:05;3;2.6;1.6
57373;PMS7003;43964;53.890;25.340;2023-08-06T16:35:49;2.4;2.4;1.2
57373;PMS7003;43964;53.890;25.340;2023-08-06T16:40:25;4.4;2.6;1.6
57373;PMS7003;43964;53.890;25.340;2023-08-06T16:46:05;3.2;2.8;1.8
57373;PMS7003;43964;53.890;25.340;2023-08-06T16:50:49;4;3;1.7
57373;PMS7003;43964;53.890;25.340;2023-08-06T16:55:31;2.8;2.4;1.6
57373;PMS7003;43964;53.890;25.340;2023-08-06T17:00:35;2.4;2.2;1
57373;PMS7003;43964;53.890;25.340;2023-08-06T17:05:33;2;2;0.8
57373;PMS7003;43964;53.890;25.340;2023-08-06T17:10:43;2.5;2.5;1.5
57373;PMS7003;43964;53.890;25.340;2023-08-06T17:15:27;2.8;2.4;1.2
57373;PMS7003;43964;53.890;25.340;2023-08-06T17:21:05;2.8;2.4;1.4
57373;PMS7003;43964;53.890;25.340;2023-08-06T17:25:33;3.8;2.5;1.3
57373;PMS7003;43964;53.890;25.340;2023-08-06T17:35:40;4;2.4;1.4
57373;PMS7003;43964;53.890;25.340;2023-08-06T17:40:33;4;3.3;1.8
57373;PMS7003;43964;53.890;25.340;2023-08-06T17:45:55;3.6;2.8;1.6
57373;PMS7003;43964;53.890;25.340;2023-08-06T17:51:05;2;2;1
57373;PMS7003;43964;53.890;25.340;2023-08-06T17:55:31;1.6;1.4;0.8
57373;PMS7003;43964;53.890;25.340;2023-08-06T18:00:25;3.6;2.4;1.2
57373;PMS7003;43964;53.890;25.340;2023-08-06T18:06:05;3.4;2.8;1.2
57373;PMS7003;43964;53.890;25.340;2023-08-06T18:10:49;2.4;1.8;1.2
57373;PMS7003;43964;53.890;25.340;2023-08-06T18:15:25;3.5;2.3;1.5
57373;PMS7003;43964;53.890;25.340;2023-08-06T18:20:49;2.2;2.2;1.8
57373;PMS7003;43964;53.890;25.340;2023-08-06T18:25:55;3;2.6;1.6
57373;PMS7003;43964;53.890;25.340;2023-08-06T18:30:25;3;2.6;1.8
57373;PMS7003;43964;53.890;25.340;2023-08-06T18:35:25;3.2;2.4;1.2
57373;PMS7003;43964;53.890;25.340;2023-08-06T18:41:05;2.8;2.2;1.4
57373;PMS7003;43964;53.890;25.340;2023-08-06T18:45:49;3.4;2.6;1.8
57373;PMS7003;43964;53.890;25.340;2023-08-06T18:50:49;4.2;3.4;2
57373;PMS7003;43964;53.890;25.340;2023-08-06T18:55:47;3.2;2.4;1.2
57373;PMS7003;43964;53.890;25.340;2023-08-06T19:01:03;3;2.4;2
57373;PMS7003;43964;53.890;25.340;2023-08-06T19:05:25;3.2;2.4;1.2
57373;PMS7003;43964;53.890;25.340;2023-08-06T19:10:25;3;2.4;1.8
57373;PMS7003;43964;53.890;25.340;2023-08-06T19:15:55;3.8;2.5;1
57373;PMS7003;43964;53.890;25.340;2023-08-06T19:20:55;3.8;2.6;2
57373;PMS7003;43964;53.890;25.340;2023-08-06T19:26:03;3.2;2.4;1.6
57373;PMS7003;43964;53.890;25.340;2023-08-06T19:30:25;2.8;2.4;1.6
57373;PMS7003;43964;53.890;25.340;2023-08-06T19:35:31;3.8;3.5;2
57373;PMS7003;43964;53.890;25.340;2023-08-06T19:40:31;2.4;2.2;1
57373;PMS7003;43964;53.890;25.340;2023-08-06T19:46:05;2.8;2.3;1.3
57373;PMS7003;43964;53.890;25.340;2023-08-06T19:50:55;2.8;2.2;1.6
57373;PMS7003;43964;53.890;25.340;2023-08-06T19:55:47;3.8;2.6;1.4
57373;PMS7003;43964;53.890;25.340;2023-08-06T20:01:05;2.4;2;1.4
57373;PMS7003;43964;53.890;25.340;2023-08-06T20:05:55;3.4;2.6;1.8
57373;PMS7003;43964;53.890;25.340;2023-08-06T20:10:31;2.8;2.4;1.4
57373;PMS7003;43964;53.890;25.340;2023-08-06T20:15:35;3;2.2;1
57373;PMS7003;43964;53.890;25.340;2023-08-06T20:21:03;3.2;2.2;1.6
57373;PMS7003;43964;53.890;25.340;2023-08-06T20:26:05;2.6;2.2;1.2
57373;PMS7003;43964;53.890;25.340;2023-08-06T20:31:05;2;1.8;1.2
57373;PMS7003;43964;53.890;25.340;2023-08-06T20:36:05;4;2.8;1.8
57373;PMS7003;43964;53.890;25.340;2023-08-06T20:45:31;2;2;0
57373;PMS7003;43964;53.890;25.340;2023-08-06T20:50:55;2.8;2.4;1.6
57373;PMS7003;43964;53.890;25.340;2023-08-06T20:56:05;2;1.8;1
57373;PMS7003;43964;53.890;25.340;2023-08-06T21:00:49;1.8;1.5;0.5
57373;PMS7003;43964;53.890;25.340;2023-08-06T21:05:31;2.2;1.6;0.8
57373;PMS7003;43964;53.890;25.340;2023-08-06T21:11:05;1.2;0.8;0.6
57373;PMS7003;43964;53.890;25.340;2023-08-06T21:15:57;1.5;1;0.5
57373;PMS7003;43964;53.890;25.340;2023-08-06T21:20:25;0.8;0.5;0
57373;PMS7003;43964;53.890;25.340;2023-08-06T21:25:39;2;1;0.5
57373;PMS7003;43964;53.890;25.340;2023-08-06T21:30:39;2.4;1.2;0.6
57373;PMS7003;43964;53.890;25.340;2023-08-06T21:35:33;0.8;0.8;0.2
57373;PMS7003;43964;53.890;25.340;2023-08-06T21:41:06;1.4;1;0.6
57373;PMS7003;43964;53.890;25.340;2023-08-06T21:45:45;0.8;0.8;0.3
57373;PMS7003;43964;53.890;25.340;2023-08-06T21:50:25;2.2;1.6;0.4
57373;PMS7003;43964;53.890;25.340;2023-08-06T21:55:49;2.8;2.2;1
57373;PMS7003;43964;53.890;25.340;2023-08-06T22:00:33;1.2;1.2;0.4
57373;PMS7003;43964;53.890;25.340;2023-08-06T22:05:40;2;1.4;0.6
57373;PMS7003;43964;53.890;25.340;2023-08-06T22:10:51;1;0.8;0.8
57373;PMS7003;43964;53.890;25.340;2023-08-06T22:16:03;1.4;1.4;0.6
57373;PMS7003;43964;53.890;25.340;2023-08-06T22:20:47;2.2;1.4;1
57373;PMS7003;43964;53.890;25.340;2023-08-06T22:25:23;1.8;1.6;1
57373;PMS7003;43964;53.890;25.340;2023-08-06T22:31:03;0.8;0.4;0.4
57373;PMS7003;43964;53.890;25.340;2023-08-06T22:35:23;1.5;1.5;1
57373;PMS7003;43964;53.890;25.340;2023-08-06T22:40:37;0.6;0.2;0
57373;PMS7003;43964;53.890;25.340;2023-08-06T22:45:23;0.5;0.3;0
57373;PMS7003;43964;53.890;25.340;2023-08-06T22:50:53;0.4;0;0
57373;PMS7003;43964;53.890;25.340;2023-08-06T22:55:23;0.4;0;0
57373;PMS7003;43964;53.890;25.340;2023-08-06T23:00:43;0;0;0
57373;PMS7003;43964;53.890;25.340;2023-08-06T23:06:03;0.4;0.2;0
57373;PMS7003;43964;53.890;25.340;2023-08-06T23:10:53;0.2;0.2;0
57373;PMS7003;43964;53.890;25.340;2023-08-06T23:15:31;0.2;0.2;0
57373;PMS7003;43964;53.890;25.340;2023-08-06T23:20:29;0.4;0.4;0
57373;PMS7003;43964;53.890;25.340;2023-08-06T23:26:03;0;0;0
57373;PMS7003;43964;53.890;25.340;2023-08-06T23:30:23;0.6;0.6;0
57373;PMS7003;43964;53.890;25.340;2023-08-06T23:35:23;0;0;0
57373;PMS7003;43964;53.890;25.340;2023-08-06T23:40:39;0.4;0;0
57373;PMS7003;43964;53.890;25.340;2023-08-06T23:45:53;0.3;0;0
57373;PMS7003;43964;53.890;25.340;2023-08-06T23:51:03;0.2;0.2;0
57373;PMS7003;43964;53.890;25.340;2023-08-06T23:55:43;0.2;0;0
